Weather at Dol pri Ljubljani Ultralightport

Public forecast

Using degrees Celsius for public forecast. Weather courtesy of forecast.io.

Closest aviation weather report (METAR) to Dol pri Ljubljani Ultralightport

Closest report is Ljubljana Jože Pučnik Airport, 11.3 nm (20.9 km) NW.

2024/05/30 06:00 (retrieved 22 minutes ago)

LJLJ 300600Z VRB01KT CAVOK 14/12 Q1009 NOSIG

Closest aviation forecast (TAF) to Dol pri Ljubljani Ultralightport

Closest forecast is Ljubljana Jože Pučnik Airport, 11.3 nm (20.9 km) NW.

2024/05/30 06:06 (retrieved 16 minutes ago)

TAF LJLJ 300500Z 3006/3106 30002KT 9999 FEW050 TEMPO 3010/3106 SHRA SCT035TCU BKN045 PROB30 TEMPO 3010/3106 5000 TSRA SCT035CB BKN045